sensor_id;sensor_type;location;lat;lon;timestamp;pressure;altitude;pressure_sealevel;temperature;humidity
84775;BME280;75005;50.966;11.344;2023-12-28T00:01:37;98871.59;;;8.25;53.44
84775;BME280;75005;50.966;11.344;2023-12-28T00:04:03;98871.91;;;8.08;54.03
84775;BME280;75005;50.966;11.344;2023-12-28T00:06:28;98878.41;;;8.03;53.68
84775;BME280;75005;50.966;11.344;2023-12-28T00:08:54;98881.16;;;8.02;53.57
84775;BME280;75005;50.966;11.344;2023-12-28T00:11:19;98865.09;;;8.07;53.06
84775;BME280;75005;50.966;11.344;2023-12-28T00:13:45;98874.88;;;7.96;53.92
84775;BME280;75005;50.966;11.344;2023-12-28T00:16:11;98871.03;;;8.38;52.52
84775;BME280;75005;50.966;11.344;2023-12-28T00:18:36;98863.81;;;8.25;52.35
84775;BME280;75005;50.966;11.344;2023-12-28T00:21:02;98861.38;;;8.24;52.38
84775;BME280;75005;50.966;11.344;2023-12-28T00:23:27;98861.66;;;8.14;53.30
84775;BME280;75005;50.966;11.344;2023-12-28T00:25:52;98860.09;;;8.05;52.93
84775;BME280;75005;50.966;11.344;2023-12-28T00:28:18;98853.22;;;7.89;54.07
84775;BME280;75005;50.966;11.344;2023-12-28T00:30:43;98852.56;;;7.87;52.76
84775;BME280;75005;50.966;11.344;2023-12-28T00:33:09;98861.56;;;7.99;53.42
84775;BME280;75005;50.966;11.344;2023-12-28T00:35:34;98868.53;;;7.99;52.77
84775;BME280;75005;50.966;11.344;2023-12-28T00:37:59;98866.03;;;8.36;50.87
84775;BME280;75005;50.966;11.344;2023-12-28T00:40:25;98871.75;;;8.24;52.30
84775;BME280;75005;50.966;11.344;2023-12-28T00:42:50;98880.00;;;8.04;52.70
84775;BME280;75005;50.966;11.344;2023-12-28T00:45:16;98887.56;;;8.14;51.94
84775;BME280;75005;50.966;11.344;2023-12-28T00:47:41;98883.63;;;8.18;51.24
84775;BME280;75005;50.966;11.344;2023-12-28T00:50:09;98895.22;;;8.08;52.58
84775;BME280;75005;50.966;11.344;2023-12-28T00:52:36;98884.25;;;8.20;51.31
84775;BME280;75005;50.966;11.344;2023-12-28T00:55:02;98885.31;;;8.11;51.89
84775;BME280;75005;50.966;11.344;2023-12-28T00:57:28;98882.75;;;8.26;51.23
84775;BME280;75005;50.966;11.344;2023-12-28T00:59:53;98897.84;;;8.68;48.78
84775;BME280;75005;50.966;11.344;2023-12-28T01:02:18;98909.00;;;8.54;50.22
84775;BME280;75005;50.966;11.344;2023-12-28T01:04:44;98917.03;;;8.59;49.24
84775;BME280;75005;50.966;11.344;2023-12-28T01:07:09;98901.47;;;8.44;49.83
84775;BME280;75005;50.966;11.344;2023-12-28T01:09:34;98907.50;;;8.36;50.72
84775;BME280;75005;50.966;11.344;2023-12-28T01:12:00;98907.06;;;8.25;50.10
84775;BME280;75005;50.966;11.344;2023-12-28T01:14:25;98903.75;;;8.16;50.41
84775;BME280;75005;50.966;11.344;2023-12-28T01:16:51;98913.03;;;8.33;49.98
84775;BME280;75005;50.966;11.344;2023-12-28T01:19:16;98895.59;;;8.19;50.83
84775;BME280;75005;50.966;11.344;2023-12-28T01:21:41;98908.16;;;8.30;50.30
84775;BME280;75005;50.966;11.344;2023-12-28T01:24:07;98919.03;;;8.34;50.72
84775;BME280;75005;50.966;11.344;2023-12-28T01:26:32;98912.09;;;8.26;51.11
84775;BME280;75005;50.966;11.344;2023-12-28T01:28:59;98896.03;;;8.08;52.07
84775;BME280;75005;50.966;11.344;2023-12-28T01:31:28;98905.16;;;7.96;52.21
84775;BME280;75005;50.966;11.344;2023-12-28T01:33:53;98897.44;;;7.88;53.33
84775;BME280;75005;50.966;11.344;2023-12-28T01:36:19;98925.75;;;7.89;52.86
84775;BME280;75005;50.966;11.344;2023-12-28T01:38:45;98927.66;;;7.95;53.76
84775;BME280;75005;50.966;11.344;2023-12-28T01:41:11;98918.78;;;7.90;52.79
84775;BME280;75005;50.966;11.344;2023-12-28T01:43:38;98929.97;;;7.90;53.58
84775;BME280;75005;50.966;11.344;2023-12-28T01:46:04;98928.13;;;7.99;52.88
84775;BME280;75005;50.966;11.344;2023-12-28T01:48:31;98931.63;;;8.14;51.91
84775;BME280;75005;50.966;11.344;2023-12-28T01:50:58;98928.41;;;8.12;52.76
84775;BME280;75005;50.966;11.344;2023-12-28T01:53:23;98918.72;;;8.29;50.75
84775;BME280;75005;50.966;11.344;2023-12-28T01:55:49;98934.44;;;8.27;51.55
84775;BME280;75005;50.966;11.344;2023-12-28T01:58:14;98935.06;;;8.29;51.23
84775;BME280;75005;50.966;11.344;2023-12-28T02:00:40;98928.72;;;8.32;52.15
84775;BME280;75005;50.966;11.344;2023-12-28T02:03:08;98935.41;;;8.26;51.75
84775;BME280;75005;50.966;11.344;2023-12-28T02:05:33;98920.16;;;8.31;52.01
84775;BME280;75005;50.966;11.344;2023-12-28T02:08:00;98913.06;;;8.25;52.68
84775;BME280;75005;50.966;11.344;2023-12-28T02:10:25;98914.03;;;8.32;51.77
84775;BME280;75005;50.966;11.344;2023-12-28T02:12:51;98911.38;;;8.41;51.64
84775;BME280;75005;50.966;11.344;2023-12-28T02:15:18;98911.84;;;8.44;51.31
84775;BME280;75005;50.966;11.344;2023-12-28T02:17:53;98922.03;;;8.46;52.28
84775;BME280;75005;50.966;11.344;2023-12-28T02:20:20;98914.13;;;8.16;54.21
84775;BME280;75005;50.966;11.344;2023-12-28T02:22:46;98939.66;;;8.19;53.18
84775;BME280;75005;50.966;11.344;2023-12-28T02:25:12;98949.22;;;8.19;53.95
84775;BME280;75005;50.966;11.344;2023-12-28T02:27:43;98951.44;;;8.30;51.87
84775;BME280;75005;50.966;11.344;2023-12-28T02:30:15;98948.34;;;8.34;52.69
84775;BME280;75005;50.966;11.344;2023-12-28T02:32:47;98951.59;;;8.36;53.18
84775;BME280;75005;50.966;11.344;2023-12-28T02:35:24;98942.25;;;8.50;52.08
84775;BME280;75005;50.966;11.344;2023-12-28T02:37:52;98939.91;;;8.41;53.12
84775;BME280;75005;50.966;11.344;2023-12-28T02:40:19;98940.19;;;8.46;53.49
84775;BME280;75005;50.966;11.344;2023-12-28T02:42:44;98937.75;;;8.44;53.25
84775;BME280;75005;50.966;11.344;2023-12-28T02:45:10;98946.97;;;8.47;53.67
84775;BME280;75005;50.966;11.344;2023-12-28T02:47:36;98941.28;;;8.51;53.38
84775;BME280;75005;50.966;11.344;2023-12-28T02:50:01;98952.72;;;8.57;53.02
84775;BME280;75005;50.966;11.344;2023-12-28T02:52:27;98945.28;;;8.77;52.67
84775;BME280;75005;50.966;11.344;2023-12-28T02:54:52;98943.09;;;8.88;51.94
84775;BME280;75005;50.966;11.344;2023-12-28T02:57:18;98938.66;;;8.74;53.18
84775;BME280;75005;50.966;11.344;2023-12-28T02:59:47;98917.97;;;8.66;54.11
84775;BME280;75005;50.966;11.344;2023-12-28T03:02:12;98918.88;;;8.73;53.50
84775;BME280;75005;50.966;11.344;2023-12-28T03:04:38;98924.81;;;8.82;54.31
84775;BME280;75005;50.966;11.344;2023-12-28T03:07:05;98913.63;;;8.81;54.74
84775;BME280;75005;50.966;11.344;2023-12-28T03:09:30;98925.78;;;8.81;55.17
84775;BME280;75005;50.966;11.344;2023-12-28T03:11:56;98917.63;;;8.69;55.20
84775;BME280;75005;50.966;11.344;2023-12-28T03:14:21;98926.94;;;8.78;55.06
84775;BME280;75005;50.966;11.344;2023-12-28T03:16:47;98905.72;;;8.75;55.99
84775;BME280;75005;50.966;11.344;2023-12-28T03:19:12;98901.00;;;8.93;55.73
84775;BME280;75005;50.966;11.344;2023-12-28T03:21:41;98897.72;;;8.99;55.87
84775;BME280;75005;50.966;11.344;2023-12-28T03:24:07;98894.06;;;9.08;55.17
84775;BME280;75005;50.966;11.344;2023-12-28T03:26:32;98897.19;;;9.03;56.88
84775;BME280;75005;50.966;11.344;2023-12-28T03:29:02;98899.78;;;9.03;56.08
84775;BME280;75005;50.966;11.344;2023-12-28T03:31:28;98916.69;;;9.14;56.26
84775;BME280;75005;50.966;11.344;2023-12-28T03:33:53;98935.41;;;9.10;56.49
84775;BME280;75005;50.966;11.344;2023-12-28T03:36:19;98938.00;;;9.10;56.30
84775;BME280;75005;50.966;11.344;2023-12-28T03:38:45;98936.94;;;9.19;56.12
84775;BME280;75005;50.966;11.344;2023-12-28T03:41:19;98931.47;;;9.14;56.22
84775;BME280;75005;50.966;11.344;2023-12-28T03:43:45;98942.84;;;9.13;57.11
84775;BME280;75005;50.966;11.344;2023-12-28T03:46:11;98953.94;;;9.07;56.09
84775;BME280;75005;50.966;11.344;2023-12-28T03:48:37;98941.56;;;9.09;57.06
84775;BME280;75005;50.966;11.344;2023-12-28T03:51:03;98932.63;;;9.11;55.97
84775;BME280;75005;50.966;11.344;2023-12-28T03:53:28;98941.41;;;9.10;56.30
84775;BME280;75005;50.966;11.344;2023-12-28T03:55:54;98937.28;;;9.16;56.50
84775;BME280;75005;50.966;11.344;2023-12-28T03:58:19;98945.88;;;9.16;57.07
84775;BME280;75005;50.966;11.344;2023-12-28T04:00:44;98917.50;;;9.15;57.54
84775;BME280;75005;50.966;11.344;2023-12-28T04:03:10;98935.22;;;9.11;58.82
84775;BME280;75005;50.966;11.344;2023-12-28T04:05:35;98938.00;;;9.10;59.15
84775;BME280;75005;50.966;11.344;2023-12-28T04:08:01;98948.31;;;9.18;59.44
84775;BME280;75005;50.966;11.344;2023-12-28T04:10:31;98934.69;;;9.16;59.31
84775;BME280;75005;50.966;11.344;2023-12-28T04:12:57;98949.00;;;9.12;60.23
84775;BME280;75005;50.966;11.344;2023-12-28T04:15:26;98958.00;;;9.24;59.92
84775;BME280;75005;50.966;11.344;2023-12-28T04:17:51;98958.00;;;9.24;60.84
84775;BME280;75005;50.966;11.344;2023-12-28T04:20:17;98963.53;;;9.21;61.00
84775;BME280;75005;50.966;11.344;2023-12-28T04:22:42;98956.72;;;9.20;60.66
84775;BME280;75005;50.966;11.344;2023-12-28T04:25:09;98969.00;;;9.26;60.50
84775;BME280;75005;50.966;11.344;2023-12-28T04:27:35;98965.84;;;9.16;61.28
84775;BME280;75005;50.966;11.344;2023-12-28T04:30:01;98967.81;;;9.14;61.91
84775;BME280;75005;50.966;11.344;2023-12-28T04:32:26;98975.00;;;9.26;60.63
84775;BME280;75005;50.966;11.344;2023-12-28T04:34:52;98957.09;;;9.17;61.65
84775;BME280;75005;50.966;11.344;2023-12-28T04:37:19;98974.56;;;9.23;61.65
84775;BME280;75005;50.966;11.344;2023-12-28T04:39:44;98987.53;;;9.23;62.27
84775;BME280;75005;50.966;11.344;2023-12-28T04:42:10;98986.09;;;9.20;62.21
84775;BME280;75005;50.966;11.344;2023-12-28T04:44:38;98980.16;;;9.12;62.71
84775;BME280;75005;50.966;11.344;2023-12-28T04:47:07;98996.03;;;9.17;62.91
84775;BME280;75005;50.966;11.344;2023-12-28T04:49:32;98997.28;;;9.21;62.40
84775;BME280;75005;50.966;11.344;2023-12-28T04:51:57;98999.25;;;9.19;63.21
84775;BME280;75005;50.966;11.344;2023-12-28T04:54:23;98986.63;;;9.16;63.31
84775;BME280;75005;50.966;11.344;2023-12-28T04:56:48;98997.09;;;9.22;63.60
84775;BME280;75005;50.966;11.344;2023-12-28T04:59:14;99011.88;;;9.22;64.16
84775;BME280;75005;50.966;11.344;2023-12-28T05:01:43;98997.63;;;9.18;64.06
84775;BME280;75005;50.966;11.344;2023-12-28T05:04:09;98943.53;;;9.07;65.35
84775;BME280;75005;50.966;11.344;2023-12-28T05:06:34;98967.53;;;9.09;65.23
84775;BME280;75005;50.966;11.344;2023-12-28T05:09:00;98985.06;;;9.07;64.83
84775;BME280;75005;50.966;11.344;2023-12-28T05:11:28;98981.22;;;9.02;65.35
84775;BME280;75005;50.966;11.344;2023-12-28T05:13:54;98976.31;;;9.08;65.45
84775;BME280;75005;50.966;11.344;2023-12-28T05:16:20;98992.06;;;9.06;66.22
84775;BME280;75005;50.966;11.344;2023-12-28T05:18:46;98966.50;;;8.95;67.13
84775;BME280;75005;50.966;11.344;2023-12-28T05:21:12;98976.72;;;8.96;66.69
84775;BME280;75005;50.966;11.344;2023-12-28T05:23:38;98998.28;;;8.97;66.58
84775;BME280;75005;50.966;11.344;2023-12-28T05:26:03;99013.06;;;8.96;67.37
84775;BME280;75005;50.966;11.344;2023-12-28T05:28:29;99015.66;;;8.96;67.92
84775;BME280;75005;50.966;11.344;2023-12-28T05:30:54;99011.69;;;8.86;67.78
84775;BME280;75005;50.966;11.344;2023-12-28T05:33:19;99016.09;;;8.85;68.08
84775;BME280;75005;50.966;11.344;2023-12-28T05:35:45;99025.19;;;8.81;69.08
84775;BME280;75005;50.966;11.344;2023-12-28T05:38:10;99041.56;;;8.82;68.85
84775;BME280;75005;50.966;11.344;2023-12-28T05:40:35;99051.78;;;8.83;68.83
84775;BME280;75005;50.966;11.344;2023-12-28T05:43:01;99047.63;;;8.74;69.50
84775;BME280;75005;50.966;11.344;2023-12-28T05:45:26;99044.38;;;8.72;69.08
84775;BME280;75005;50.966;11.344;2023-12-28T05:47:52;99045.06;;;8.66;70.20
84775;BME280;75005;50.966;11.344;2023-12-28T05:50:17;99031.13;;;8.67;70.32
84775;BME280;75005;50.966;11.344;2023-12-28T05:52:43;99039.41;;;8.62;70.47
84775;BME280;75005;50.966;11.344;2023-12-28T05:55:08;99041.66;;;8.65;70.51
84775;BME280;75005;50.966;11.344;2023-12-28T05:57:33;99036.78;;;8.48;71.13
84775;BME280;75005;50.966;11.344;2023-12-28T05:59:59;99000.56;;;8.54;70.81
84775;BME280;75005;50.966;11.344;2023-12-28T06:02:24;99031.25;;;8.51;71.26
84775;BME280;75005;50.966;11.344;2023-12-28T06:04:50;99011.06;;;8.61;70.97
84775;BME280;75005;50.966;11.344;2023-12-28T06:07:15;99020.69;;;8.52;71.54
84775;BME280;75005;50.966;11.344;2023-12-28T06:09:41;99024.31;;;8.43;72.41
84775;BME280;75005;50.966;11.344;2023-12-28T06:12:06;99004.75;;;8.55;71.82
84775;BME280;75005;50.966;11.344;2023-12-28T06:14:32;99010.31;;;8.52;71.92
84775;BME280;75005;50.966;11.344;2023-12-28T06:16:57;99007.72;;;8.52;72.38
84775;BME280;75005;50.966;11.344;2023-12-28T06:19:23;99010.84;;;8.48;72.19
84775;BME280;75005;50.966;11.344;2023-12-28T06:21:48;99026.88;;;8.51;72.75
84775;BME280;75005;50.966;11.344;2023-12-28T06:24:14;99029.09;;;8.54;72.85
84775;BME280;75005;50.966;11.344;2023-12-28T06:26:43;99029.66;;;8.42;73.04
84775;BME280;75005;50.966;11.344;2023-12-28T06:29:09;99006.66;;;8.38;73.40
84775;BME280;75005;50.966;11.344;2023-12-28T06:31:35;99008.91;;;8.42;74.03
84775;BME280;75005;50.966;11.344;2023-12-28T06:34:07;99019.47;;;8.32;73.49
84775;BME280;75005;50.966;11.344;2023-12-28T06:36:33;99021.13;;;8.33;73.52
84775;BME280;75005;50.966;11.344;2023-12-28T06:38:59;99025.50;;;8.24;73.65
84775;BME280;75005;50.966;11.344;2023-12-28T06:41:25;99032.16;;;8.19;75.00
84775;BME280;75005;50.966;11.344;2023-12-28T06:43:51;99027.28;;;8.24;74.47
84775;BME280;75005;50.966;11.344;2023-12-28T06:46:17;99034.94;;;8.17;74.35
84775;BME280;75005;50.966;11.344;2023-12-28T06:48:43;99037.50;;;8.25;73.80
84775;BME280;75005;50.966;11.344;2023-12-28T06:51:09;99052.06;;;8.26;73.97
84775;BME280;75005;50.966;11.344;2023-12-28T06:53:35;99060.84;;;8.17;74.83
84775;BME280;75005;50.966;11.344;2023-12-28T06:56:00;99064.06;;;8.19;74.95
84775;BME280;75005;50.966;11.344;2023-12-28T06:58:26;99074.13;;;8.22;73.80
84775;BME280;75005;50.966;11.344;2023-12-28T07:00:51;99059.94;;;8.10;74.55
84775;BME280;75005;50.966;11.344;2023-12-28T07:03:16;99084.47;;;8.22;74.13
84775;BME280;75005;50.966;11.344;2023-12-28T07:05:42;99094.19;;;8.28;74.12
84775;BME280;75005;50.966;11.344;2023-12-28T07:08:08;99091.75;;;8.27;73.81
84775;BME280;75005;50.966;11.344;2023-12-28T07:10:33;99095.00;;;8.29;74.78
84775;BME280;75005;50.966;11.344;2023-12-28T07:12:59;99106.19;;;8.21;74.52
84775;BME280;75005;50.966;11.344;2023-12-28T07:15:24;99095.97;;;8.28;74.02
84775;BME280;75005;50.966;11.344;2023-12-28T07:17:50;99094.59;;;8.09;74.85
84775;BME280;75005;50.966;11.344;2023-12-28T07:20:15;99077.47;;;7.84;76.51
84775;BME280;75005;50.966;11.344;2023-12-28T07:22:41;99087.59;;;7.62;77.74
84775;BME280;75005;50.966;11.344;2023-12-28T07:25:07;99086.28;;;7.50;77.95
84775;BME280;75005;50.966;11.344;2023-12-28T07:27:34;99080.34;;;7.42;78.30
84775;BME280;75005;50.966;11.344;2023-12-28T07:30:00;99075.66;;;7.37;78.71
84775;BME280;75005;50.966;11.344;2023-12-28T07:32:25;99078.41;;;7.27;79.26
84775;BME280;75005;50.966;11.344;2023-12-28T07:34:54;99079.50;;;7.09;79.78
84775;BME280;75005;50.966;11.344;2023-12-28T07:37:19;99068.06;;;7.03;79.77
84775;BME280;75005;50.966;11.344;2023-12-28T07:39:46;99078.56;;;7.34;78.58
84775;BME280;75005;50.966;11.344;2023-12-28T07:42:11;99083.06;;;7.56;77.27
84775;BME280;75005;50.966;11.344;2023-12-28T07:44:37;99092.28;;;7.59;77.77
84775;BME280;75005;50.966;11.344;2023-12-28T07:47:02;99087.09;;;7.75;76.15
84775;BME280;75005;50.966;11.344;2023-12-28T07:49:30;99096.47;;;7.76;76.49
84775;BME280;75005;50.966;11.344;2023-12-28T07:51:56;99100.34;;;7.72;76.16
84775;BME280;75005;50.966;11.344;2023-12-28T07:54:21;99098.09;;;7.61;76.70
84775;BME280;75005;50.966;11.344;2023-12-28T07:56:46;99093.72;;;7.69;76.18
84775;BME280;75005;50.966;11.344;2023-12-28T07:59:12;99101.66;;;7.76;75.44
84775;BME280;75005;50.966;11.344;2023-12-28T08:01:37;99092.38;;;7.82;75.16
84775;BME280;75005;50.966;11.344;2023-12-28T08:04:03;99101.28;;;7.87;75.69
84775;BME280;75005;50.966;11.344;2023-12-28T08:06:29;99105.00;;;7.85;75.43
84775;BME280;75005;50.966;11.344;2023-12-28T08:08:57;99101.78;;;7.83;75.01
84775;BME280;75005;50.966;11.344;2023-12-28T08:11:28;99101.75;;;7.91;75.46
84775;BME280;75005;50.966;11.344;2023-12-28T08:13:53;99095.75;;;7.98;74.30
84775;BME280;75005;50.966;11.344;2023-12-28T08:16:19;99093.97;;;7.99;74.06
84775;BME280;75005;50.966;11.344;2023-12-28T08:18:45;99092.38;;;7.82;74.98
84775;BME280;75005;50.966;11.344;2023-12-28T08:21:10;99096.16;;;7.71;75.72
84775;BME280;75005;50.966;11.344;2023-12-28T08:23:35;99084.34;;;7.60;76.25
84775;BME280;75005;50.966;11.344;2023-12-28T08:26:01;99101.97;;;7.73;75.70
84775;BME280;75005;50.966;11.344;2023-12-28T08:28:27;99105.22;;;7.67;75.39
84775;BME280;75005;50.966;11.344;2023-12-28T08:30:53;99121.25;;;7.62;75.78
84775;BME280;75005;50.966;11.344;2023-12-28T08:33:20;99109.09;;;7.63;75.64
84775;BME280;75005;50.966;11.344;2023-12-28T08:35:45;99113.91;;;7.82;74.87
84775;BME280;75005;50.966;11.344;2023-12-28T08:38:11;99127.34;;;7.94;74.45
84775;BME280;75005;50.966;11.344;2023-12-28T08:40:36;99123.63;;;7.80;74.96
84775;BME280;75005;50.966;11.344;2023-12-28T08:43:01;99130.94;;;7.77;74.33
84775;BME280;75005;50.966;11.344;2023-12-28T08:45:27;99134.34;;;7.77;75.38
84775;BME280;75005;50.966;11.344;2023-12-28T08:47:52;99132.88;;;7.83;75.27
84775;BME280;75005;50.966;11.344;2023-12-28T08:50:18;99130.75;;;7.86;74.32
84775;BME280;75005;50.966;11.344;2023-12-28T08:52:43;99129.81;;;7.79;74.91
84775;BME280;75005;50.966;11.344;2023-12-28T08:55:09;99115.75;;;7.74;75.26
84775;BME280;75005;50.966;11.344;2023-12-28T08:57:35;99122.88;;;7.63;76.48
84775;BME280;75005;50.966;11.344;2023-12-28T09:00:00;99118.28;;;7.82;74.11
84775;BME280;75005;50.966;11.344;2023-12-28T09:02:28;99110.69;;;7.80;74.64
84775;BME280;75005;50.966;11.344;2023-12-28T09:04:53;99120.25;;;7.80;74.84
84775;BME280;75005;50.966;11.344;2023-12-28T09:07:19;99118.97;;;7.76;74.90
84775;BME280;75005;50.966;11.344;2023-12-28T09:09:45;99103.75;;;7.72;75.15
84775;BME280;75005;50.966;11.344;2023-12-28T09:12:11;99120.69;;;7.99;74.37
84775;BME280;75005;50.966;11.344;2023-12-28T09:14:37;99108.41;;;7.93;73.75
84775;BME280;75005;50.966;11.344;2023-12-28T09:17:03;99103.38;;;7.92;74.22
84775;BME280;75005;50.966;11.344;2023-12-28T09:19:28;99094.00;;;7.91;74.86
84775;BME280;75005;50.966;11.344;2023-12-28T09:21:54;99095.25;;;8.03;73.85
84775;BME280;75005;50.966;11.344;2023-12-28T09:24:19;99098.16;;;8.08;72.90
84775;BME280;75005;50.966;11.344;2023-12-28T09:26:44;99102.97;;;8.19;72.47
84775;BME280;75005;50.966;11.344;2023-12-28T09:29:10;99103.75;;;8.28;72.39
84775;BME280;75005;50.966;11.344;2023-12-28T09:31:37;99107.81;;;8.22;72.44
84775;BME280;75005;50.966;11.344;2023-12-28T09:34:03;99102.63;;;8.22;72.14
84775;BME280;75005;50.966;11.344;2023-12-28T09:36:33;99107.16;;;8.28;71.77
84775;BME280;75005;50.966;11.344;2023-12-28T09:38:58;99096.81;;;8.20;71.81
84775;BME280;75005;50.966;11.344;2023-12-28T09:41:30;99100.03;;;8.22;71.53
84775;BME280;75005;50.966;11.344;2023-12-28T09:44:12;99113.78;;;8.31;71.40
84775;BME280;75005;50.966;11.344;2023-12-28T09:46:42;99112.81;;;8.40;70.04
84775;BME280;75005;50.966;11.344;2023-12-28T09:49:08;99093.84;;;8.40;70.55
84775;BME280;75005;50.966;11.344;2023-12-28T09:51:34;99101.63;;;8.40;70.61
84775;BME280;75005;50.966;11.344;2023-12-28T09:54:00;99109.38;;;8.48;70.46
84775;BME280;75005;50.966;11.344;2023-12-28T09:56:26;99091.56;;;8.45;69.89
84775;BME280;75005;50.966;11.344;2023-12-28T09:58:52;99110.81;;;8.50;70.14
84775;BME280;75005;50.966;11.344;2023-12-28T10:01:18;99095.53;;;8.55;69.63
84775;BME280;75005;50.966;11.344;2023-12-28T10:03:44;99096.72;;;8.53;69.75
84775;BME280;75005;50.966;11.344;2023-12-28T10:06:09;99092.09;;;8.63;69.83
84775;BME280;75005;50.966;11.344;2023-12-28T10:08:35;99093.88;;;8.62;69.80
84775;BME280;75005;50.966;11.344;2023-12-28T10:11:04;99082.22;;;8.58;69.85
84775;BME280;75005;50.966;11.344;2023-12-28T10:13:32;99089.34;;;8.64;69.58
84775;BME280;75005;50.966;11.344;2023-12-28T10:15:59;99097.75;;;8.66;69.06
84775;BME280;75005;50.966;11.344;2023-12-28T10:18:24;99086.88;;;8.71;68.86
84775;BME280;75005;50.966;11.344;2023-12-28T10:20:51;99086.22;;;8.69;68.78
84775;BME280;75005;50.966;11.344;2023-12-28T10:23:20;99071.31;;;8.71;68.49
84775;BME280;75005;50.966;11.344;2023-12-28T10:25:50;99076.50;;;8.71;68.89
84775;BME280;75005;50.966;11.344;2023-12-28T10:28:18;99080.38;;;8.75;69.16
84775;BME280;75005;50.966;11.344;2023-12-28T10:30:45;99072.72;;;8.82;69.03
84775;BME280;75005;50.966;11.344;2023-12-28T10:33:11;99086.00;;;9.01;68.17
84775;BME280;75005;50.966;11.344;2023-12-28T10:35:36;99078.91;;;8.95;68.05
84775;BME280;75005;50.966;11.344;2023-12-28T10:38:02;99101.25;;;9.04;67.94
84775;BME280;75005;50.966;11.344;2023-12-28T10:40:32;99108.97;;;9.13;68.40
84775;BME280;75005;50.966;11.344;2023-12-28T10:42:58;99114.28;;;9.19;67.85
84775;BME280;75005;50.966;11.344;2023-12-28T10:45:29;99111.09;;;9.32;67.22
84775;BME280;75005;50.966;11.344;2023-12-28T10:48:07;99106.19;;;9.37;66.72
84775;BME280;75005;50.966;11.344;2023-12-28T10:50:49;99114.16;;;9.35;66.93
84775;BME280;75005;50.966;11.344;2023-12-28T10:53:35;99125.63;;;9.41;66.05
84775;BME280;75005;50.966;11.344;2023-12-28T10:56:26;99142.66;;;9.44;66.26
84775;BME280;75005;50.966;11.344;2023-12-28T10:59:07;99140.22;;;9.42;66.46
84775;BME280;75005;50.966;11.344;2023-12-28T11:01:37;99130.53;;;9.36;65.77
84775;BME280;75005;50.966;11.344;2023-12-28T11:06:41;99126.84;;;9.53;66.02
84775;BME280;75005;50.966;11.344;2023-12-28T11:09:09;99128.56;;;9.61;65.65
84775;BME280;75005;50.966;11.344;2023-12-28T11:11:36;99127.84;;;9.67;65.19
84775;BME280;75005;50.966;11.344;2023-12-28T11:14:03;99133.84;;;9.67;65.02
84775;BME280;75005;50.966;11.344;2023-12-28T11:16:29;99125.00;;;9.77;64.86
84775;BME280;75005;50.966;11.344;2023-12-28T11:18:55;99118.81;;;9.78;64.84
84775;BME280;75005;50.966;11.344;2023-12-28T11:21:22;99111.38;;;9.75;64.99
84775;BME280;75005;50.966;11.344;2023-12-28T11:23:49;99110.38;;;9.76;64.78
84775;BME280;75005;50.966;11.344;2023-12-28T11:26:20;99107.16;;;9.73;63.65
84775;BME280;75005;50.966;11.344;2023-12-28T11:28:47;99115.94;;;9.72;65.64
84775;BME280;75005;50.966;11.344;2023-12-28T11:31:17;99126.97;;;9.75;64.09
84775;BME280;75005;50.966;11.344;2023-12-28T11:33:46;99114.94;;;9.73;64.39
84775;BME280;75005;50.966;11.344;2023-12-28T11:36:24;99128.22;;;9.79;63.72
84775;BME280;75005;50.966;11.344;2023-12-28T11:38:53;99127.50;;;9.85;63.19
84775;BME280;75005;50.966;11.344;2023-12-28T11:41:24;99127.50;;;9.85;63.22
84775;BME280;75005;50.966;11.344;2023-12-28T11:43:53;99131.84;;;9.92;63.00
84775;BME280;75005;50.966;11.344;2023-12-28T11:46:21;99124.84;;;9.93;63.44
84775;BME280;75005;50.966;11.344;2023-12-28T11:48:47;99123.50;;;9.97;63.10
84775;BME280;75005;50.966;11.344;2023-12-28T11:51:12;99123.50;;;9.97;63.51
84775;BME280;75005;50.966;11.344;2023-12-28T11:53:38;99116.34;;;9.99;63.46
84775;BME280;75005;50.966;11.344;2023-12-28T11:56:05;99103.06;;;9.94;63.70
84775;BME280;75005;50.966;11.344;2023-12-28T11:58:34;99107.16;;;10.03;62.86
84775;BME280;75005;50.966;11.344;2023-12-28T12:01:01;99111.31;;;9.97;63.67
84775;BME280;75005;50.966;11.344;2023-12-28T12:03:27;99111.94;;;9.99;63.56
84775;BME280;75005;50.966;11.344;2023-12-28T12:05:55;99113.56;;;10.00;63.63
84775;BME280;75005;50.966;11.344;2023-12-28T12:08:22;99108.34;;;10.00;63.38
84775;BME280;75005;50.966;11.344;2023-12-28T12:10:48;99101.38;;;10.01;63.55
84775;BME280;75005;50.966;11.344;2023-12-28T12:13:14;99104.56;;;10.03;63.21
84775;BME280;75005;50.966;11.344;2023-12-28T12:15:40;99101.38;;;10.01;64.06
84775;BME280;75005;50.966;11.344;2023-12-28T12:18:05;99091.84;;;9.93;63.68
84775;BME280;75005;50.966;11.344;2023-12-28T12:20:31;99106.91;;;9.98;64.15
84775;BME280;75005;50.966;11.344;2023-12-28T12:22:58;99108.72;;;9.97;64.25
84775;BME280;75005;50.966;11.344;2023-12-28T12:25:24;99085.31;;;9.97;63.66
84775;BME280;75005;50.966;11.344;2023-12-28T12:27:49;99100.75;;;9.99;63.60
84775;BME280;75005;50.966;11.344;2023-12-28T12:30:15;99099.75;;;10.00;64.06
84775;BME280;75005;50.966;11.344;2023-12-28T12:32:40;99094.38;;;10.01;63.75
84775;BME280;75005;50.966;11.344;2023-12-28T12:35:09;99095.88;;;9.96;63.45
84775;BME280;75005;50.966;11.344;2023-12-28T12:37:36;99091.50;;;9.96;63.98
84775;BME280;75005;50.966;11.344;2023-12-28T12:40:03;99094.97;;;10.03;63.89
84775;BME280;75005;50.966;11.344;2023-12-28T12:42:28;99082.19;;;10.02;63.51
84775;BME280;75005;50.966;11.344;2023-12-28T12:44:54;99082.09;;;9.95;63.44
84775;BME280;75005;50.966;11.344;2023-12-28T12:47:19;99069.09;;;9.95;63.61
84775;BME280;75005;50.966;11.344;2023-12-28T12:49:45;99076.09;;;9.95;63.77
84775;BME280;75005;50.966;11.344;2023-12-28T12:52:12;99079.03;;;9.92;63.93
84775;BME280;75005;50.966;11.344;2023-12-28T12:54:37;99068.28;;;9.95;63.70
84775;BME280;75005;50.966;11.344;2023-12-28T12:57:03;99066.13;;;9.98;63.29
84775;BME280;75005;50.966;11.344;2023-12-28T12:59:29;99054.31;;;9.96;63.16